sensor_id;sensor_type;location;lat;lon;timestamp;pressure;altitude;pressure_sealevel;temperature;humidity
80333;BME280;69652;51.864;-2.246;2024-03-23T00:54:10;101560.03;;;6.90;67.37
80333;BME280;69652;51.864;-2.246;2024-03-23T00:56:36;101560.53;;;6.87;67.72
80333;BME280;69652;51.864;-2.246;2024-03-23T00:59:01;101552.19;;;6.83;68.46
80333;BME280;69652;51.864;-2.246;2024-03-23T01:01:27;101541.06;;;6.80;67.75
80333;BME280;69652;51.864;-2.246;2024-03-23T01:03:52;101534.00;;;6.74;67.95
80333;BME280;69652;51.864;-2.246;2024-03-23T01:06:18;101528.56;;;6.69;68.49
80333;BME280;69652;51.864;-2.246;2024-03-23T01:08:44;101537.16;;;6.66;68.64
80333;BME280;69652;51.864;-2.246;2024-03-23T01:11:09;101524.44;;;6.61;69.36
80333;BME280;69652;51.864;-2.246;2024-03-23T01:13:35;101525.00;;;6.63;68.93
80333;BME280;69652;51.864;-2.246;2024-03-23T01:16:00;101530.94;;;6.60;69.03
80333;BME280;69652;51.864;-2.246;2024-03-23T01:18:27;101533.88;;;6.59;69.48
80333;BME280;69652;51.864;-2.246;2024-03-23T01:20:52;101533.31;;;6.57;68.97
80333;BME280;69652;51.864;-2.246;2024-03-23T01:23:18;101530.88;;;6.55;69.73
80333;BME280;69652;51.864;-2.246;2024-03-23T01:25:44;101525.19;;;6.51;69.47
80333;BME280;69652;51.864;-2.246;2024-03-23T01:28:16;101527.28;;;6.44;70.37
80333;BME280;69652;51.864;-2.246;2024-03-23T01:30:42;101524.03;;;6.42;70.96
80333;BME280;69652;51.864;-2.246;2024-03-23T01:33:07;101526.72;;;6.42;70.39
80333;BME280;69652;51.864;-2.246;2024-03-23T01:35:33;101526.97;;;6.41;69.91
80333;BME280;69652;51.864;-2.246;2024-03-23T01:37:58;101531.56;;;6.40;70.09
80333;BME280;69652;51.864;-2.246;2024-03-23T01:40:24;101518.84;;;6.36;70.32
80333;BME280;69652;51.864;-2.246;2024-03-23T01:42:57;101515.59;;;6.34;71.10
80333;BME280;69652;51.864;-2.246;2024-03-23T01:45:22;101514.47;;;6.30;70.37
80333;BME280;69652;51.864;-2.246;2024-03-23T01:47:52;101511.22;;;6.28;72.01
80333;BME280;69652;51.864;-2.246;2024-03-23T01:50:19;101512.84;;;6.29;71.19
80333;BME280;69652;51.864;-2.246;2024-03-23T01:52:45;101513.16;;;6.32;70.91
80333;BME280;69652;51.864;-2.246;2024-03-23T01:55:11;101497.47;;;6.29;71.09
80333;BME280;69652;51.864;-2.246;2024-03-23T01:57:37;101496.88;;;6.22;71.24
80333;BME280;69652;51.864;-2.246;2024-03-23T02:00:03;101495.75;;;6.18;71.01
80333;BME280;69652;51.864;-2.246;2024-03-23T02:02:29;101499.56;;;6.22;70.91
80333;BME280;69652;51.864;-2.246;2024-03-23T02:04:54;101505.22;;;6.21;70.72
80333;BME280;69652;51.864;-2.246;2024-03-23T02:07:20;101502.28;;;6.22;71.36
80333;BME280;69652;51.864;-2.246;2024-03-23T02:09:46;101508.16;;;6.19;71.11
80333;BME280;69652;51.864;-2.246;2024-03-23T02:12:11;101494.19;;;6.22;72.02
80333;BME280;69652;51.864;-2.246;2024-03-23T02:14:37;101490.44;;;6.23;72.12
80333;BME280;69652;51.864;-2.246;2024-03-23T02:17:02;101494.75;;;6.24;72.66
80333;BME280;69652;51.864;-2.246;2024-03-23T02:19:28;101493.38;;;6.22;71.30
80333;BME280;69652;51.864;-2.246;2024-03-23T02:21:54;101495.81;;;6.23;72.83
80333;BME280;69652;51.864;-2.246;2024-03-23T02:24:19;101480.16;;;6.20;72.76
80333;BME280;69652;51.864;-2.246;2024-03-23T02:26:45;101487.72;;;6.23;71.92
80333;BME280;69652;51.864;-2.246;2024-03-23T02:29:13;101478.19;;;6.15;72.05
80333;BME280;69652;51.864;-2.246;2024-03-23T02:31:39;101478.97;;;6.11;71.83
80333;BME280;69652;51.864;-2.246;2024-03-23T02:34:04;101481.13;;;6.09;71.90
80333;BME280;69652;51.864;-2.246;2024-03-23T02:36:30;101486.25;;;6.10;72.28
80333;BME280;69652;51.864;-2.246;2024-03-23T02:38:56;101477.34;;;6.10;72.40
80333;BME280;69652;51.864;-2.246;2024-03-23T02:41:22;101486.00;;;6.12;71.90
80333;BME280;69652;51.864;-2.246;2024-03-23T02:43:49;101477.66;;;6.13;70.61
80333;BME280;69652;51.864;-2.246;2024-03-23T02:46:15;101471.50;;;6.18;70.18
80333;BME280;69652;51.864;-2.246;2024-03-23T02:48:41;101483.34;;;6.17;70.87
80333;BME280;69652;51.864;-2.246;2024-03-23T02:51:06;101476.03;;;6.12;70.63
80333;BME280;69652;51.864;-2.246;2024-03-23T02:53:32;101479.25;;;6.09;71.05
80333;BME280;69652;51.864;-2.246;2024-03-23T02:55:58;101478.41;;;6.09;70.81
80333;BME280;69652;51.864;-2.246;2024-03-23T02:58:24;101485.38;;;6.05;71.20
80333;BME280;69652;51.864;-2.246;2024-03-23T03:00:49;101487.06;;;6.11;71.70
80333;BME280;69652;51.864;-2.246;2024-03-23T03:03:15;101487.63;;;6.13;70.12
80333;BME280;69652;51.864;-2.246;2024-03-23T03:05:41;101483.00;;;6.08;70.43
80333;BME280;69652;51.864;-2.246;2024-03-23T03:08:06;101486.75;;;6.07;71.02
80333;BME280;69652;51.864;-2.246;2024-03-23T03:10:32;101479.44;;;6.03;70.20
80333;BME280;69652;51.864;-2.246;2024-03-23T03:13:00;101482.09;;;5.98;71.88
80333;BME280;69652;51.864;-2.246;2024-03-23T03:15:26;101463.72;;;5.95;70.98
80333;BME280;69652;51.864;-2.246;2024-03-23T03:17:51;101469.88;;;5.90;71.14
80333;BME280;69652;51.864;-2.246;2024-03-23T03:20:17;101469.88;;;5.90;70.65
80333;BME280;69652;51.864;-2.246;2024-03-23T03:22:43;101470.59;;;5.86;71.64
80333;BME280;69652;51.864;-2.246;2024-03-23T03:25:09;101464.91;;;5.82;71.15
80333;BME280;69652;51.864;-2.246;2024-03-23T03:27:34;101457.63;;;5.82;71.37
80333;BME280;69652;51.864;-2.246;2024-03-23T03:30:00;101456.25;;;5.80;70.64
80333;BME280;69652;51.864;-2.246;2024-03-23T03:32:29;101450.06;;;5.79;71.44
80333;BME280;69652;51.864;-2.246;2024-03-23T03:34:55;101451.69;;;5.80;70.53
80333;BME280;69652;51.864;-2.246;2024-03-23T03:37:20;101436.91;;;5.83;71.68
80333;BME280;69652;51.864;-2.246;2024-03-23T03:39:46;101441.16;;;5.79;71.75
80333;BME280;69652;51.864;-2.246;2024-03-23T03:42:11;101443.03;;;5.78;71.05
80333;BME280;69652;51.864;-2.246;2024-03-23T03:44:37;101437.16;;;5.81;70.47
80333;BME280;69652;51.864;-2.246;2024-03-23T03:47:02;101444.16;;;5.82;70.60
80333;BME280;69652;51.864;-2.246;2024-03-23T03:49:28;101444.72;;;5.85;71.88
80333;BME280;69652;51.864;-2.246;2024-03-23T03:51:53;101439.09;;;5.86;71.04
80333;BME280;69652;51.864;-2.246;2024-03-23T03:54:19;101442.38;;;5.88;71.48
80333;BME280;69652;51.864;-2.246;2024-03-23T03:56:44;101435.94;;;5.89;72.05
80333;BME280;69652;51.864;-2.246;2024-03-23T03:59:10;101443.72;;;5.91;70.62
80333;BME280;69652;51.864;-2.246;2024-03-23T04:01:35;101435.53;;;5.80;71.06
80333;BME280;69652;51.864;-2.246;2024-03-23T04:04:01;101436.56;;;5.74;71.55
80333;BME280;69652;51.864;-2.246;2024-03-23T04:06:26;101427.41;;;5.75;71.44
80333;BME280;69652;51.864;-2.246;2024-03-23T04:08:52;101427.34;;;5.70;72.85
80333;BME280;69652;51.864;-2.246;2024-03-23T04:11:17;101433.78;;;5.69;72.64
80333;BME280;69652;51.864;-2.246;2024-03-23T04:13:43;101427.91;;;5.72;72.44
80333;BME280;69652;51.864;-2.246;2024-03-23T04:16:08;101426.88;;;5.78;72.81
80333;BME280;69652;51.864;-2.246;2024-03-23T04:18:34;101421.00;;;5.81;72.56
80333;BME280;69652;51.864;-2.246;2024-03-23T04:21:00;101413.97;;;5.80;73.76
80333;BME280;69652;51.864;-2.246;2024-03-23T04:23:26;101405.63;;;5.82;72.75
80333;BME280;69652;51.864;-2.246;2024-03-23T04:25:51;101411.28;;;5.80;74.33
80333;BME280;69652;51.864;-2.246;2024-03-23T04:28:19;101404.81;;;5.81;73.44
80333;BME280;69652;51.864;-2.246;2024-03-23T04:30:44;101397.25;;;5.78;73.99
80333;BME280;69652;51.864;-2.246;2024-03-23T04:33:10;101416.66;;;5.80;74.46
80333;BME280;69652;51.864;-2.246;2024-03-23T04:35:35;101401.13;;;5.88;73.88
80333;BME280;69652;51.864;-2.246;2024-03-23T04:38:01;101405.00;;;5.97;73.60
80333;BME280;69652;51.864;-2.246;2024-03-23T04:40:27;101396.44;;;6.00;73.61
80333;BME280;69652;51.864;-2.246;2024-03-23T04:42:52;101398.59;;;6.03;73.06
80333;BME280;69652;51.864;-2.246;2024-03-23T04:45:18;101406.66;;;6.03;73.71
80333;BME280;69652;51.864;-2.246;2024-03-23T04:47:43;101391.84;;;6.00;72.56
80333;BME280;69652;51.864;-2.246;2024-03-23T04:50:09;101390.22;;;5.99;73.83
80333;BME280;69652;51.864;-2.246;2024-03-23T04:52:38;101389.69;;;6.02;73.89
80333;BME280;69652;51.864;-2.246;2024-03-23T04:55:03;101380.00;;;6.01;72.25
80333;BME280;69652;51.864;-2.246;2024-03-23T04:57:29;101378.06;;;5.97;72.55
80333;BME280;69652;51.864;-2.246;2024-03-23T04:59:55;101370.28;;;6.00;72.16
80333;BME280;69652;51.864;-2.246;2024-03-23T05:02:20;101368.91;;;5.98;72.35
80333;BME280;69652;51.864;-2.246;2024-03-23T05:04:46;101366.72;;;5.95;72.10
80333;BME280;69652;51.864;-2.246;2024-03-23T05:07:11;101363.47;;;5.93;72.12
80333;BME280;69652;51.864;-2.246;2024-03-23T05:09:37;101372.63;;;5.92;73.35
80333;BME280;69652;51.864;-2.246;2024-03-23T05:12:02;101374.19;;;5.88;73.59
80333;BME280;69652;51.864;-2.246;2024-03-23T05:14:28;101368.59;;;5.89;73.57
80333;BME280;69652;51.864;-2.246;2024-03-23T05:16:54;101361.47;;;5.83;73.57
80333;BME280;69652;51.864;-2.246;2024-03-23T05:19:19;101360.09;;;5.80;72.83
80333;BME280;69652;51.864;-2.246;2024-03-23T05:21:45;101367.13;;;5.81;72.15
80333;BME280;69652;51.864;-2.246;2024-03-23T05:24:11;101370.06;;;5.80;73.61
80333;BME280;69652;51.864;-2.246;2024-03-23T05:26:37;101374.09;;;5.77;72.31
80333;BME280;69652;51.864;-2.246;2024-03-23T05:29:03;101370.28;;;5.73;73.14
80333;BME280;69652;51.864;-2.246;2024-03-23T05:31:30;101362.19;;;5.73;73.44
80333;BME280;69652;51.864;-2.246;2024-03-23T05:33:55;101357.63;;;5.74;73.42
80333;BME280;69652;51.864;-2.246;2024-03-23T05:36:21;101354.13;;;5.73;73.41
80333;BME280;69652;51.864;-2.246;2024-03-23T05:38:47;101364.34;;;5.71;72.76
80333;BME280;69652;51.864;-2.246;2024-03-23T05:41:12;101360.88;;;5.76;72.75
80333;BME280;69652;51.864;-2.246;2024-03-23T05:43:38;101348.47;;;5.75;73.18
80333;BME280;69652;51.864;-2.246;2024-03-23T05:46:03;101356.00;;;5.73;73.67
80333;BME280;69652;51.864;-2.246;2024-03-23T05:48:33;101354.06;;;5.68;74.38
80333;BME280;69652;51.864;-2.246;2024-03-23T05:50:59;101346.75;;;5.64;72.91
80333;BME280;69652;51.864;-2.246;2024-03-23T05:53:24;101353.72;;;5.60;74.76
80333;BME280;69652;51.864;-2.246;2024-03-23T05:55:51;101364.81;;;5.63;74.00
80333;BME280;69652;51.864;-2.246;2024-03-23T05:58:19;101355.91;;;5.63;72.83
80333;BME280;69652;51.864;-2.246;2024-03-23T06:00:45;101355.59;;;5.59;74.29
80333;BME280;69652;51.864;-2.246;2024-03-23T06:03:11;101357.53;;;5.64;73.35
80333;BME280;69652;51.864;-2.246;2024-03-23T06:05:37;101356.97;;;5.62;73.25
80333;BME280;69652;51.864;-2.246;2024-03-23T06:08:03;101351.03;;;5.60;72.78
80333;BME280;69652;51.864;-2.246;2024-03-23T06:10:29;101349.97;;;5.61;72.89
80333;BME280;69652;51.864;-2.246;2024-03-23T06:12:55;101342.94;;;5.60;73.81
80333;BME280;69652;51.864;-2.246;2024-03-23T06:15:21;101342.13;;;5.59;73.16
80333;BME280;69652;51.864;-2.246;2024-03-23T06:17:48;101349.97;;;5.61;73.23
80333;BME280;69652;51.864;-2.246;2024-03-23T06:20:13;101341.88;;;5.61;72.99
80333;BME280;69652;51.864;-2.246;2024-03-23T06:22:39;101348.16;;;5.66;71.87
80333;BME280;69652;51.864;-2.246;2024-03-23T06:25:05;101359.19;;;5.70;73.07
80333;BME280;69652;51.864;-2.246;2024-03-23T06:27:32;101353.31;;;5.73;71.99
80333;BME280;69652;51.864;-2.246;2024-03-23T06:30:01;101353.00;;;5.69;72.78
80333;BME280;69652;51.864;-2.246;2024-03-23T06:32:27;101352.44;;;5.67;71.68
80333;BME280;69652;51.864;-2.246;2024-03-23T06:34:54;101351.63;;;5.67;73.19
80333;BME280;69652;51.864;-2.246;2024-03-23T06:37:19;101352.19;;;5.69;72.25
80333;BME280;69652;51.864;-2.246;2024-03-23T06:39:46;101352.75;;;5.71;72.05
80333;BME280;69652;51.864;-2.246;2024-03-23T06:42:12;101347.91;;;5.73;71.20
80333;BME280;69652;51.864;-2.246;2024-03-23T06:44:38;101345.22;;;5.73;71.32
80333;BME280;69652;51.864;-2.246;2024-03-23T06:47:04;101353.06;;;5.74;70.84
80333;BME280;69652;51.864;-2.246;2024-03-23T06:49:30;101348.72;;;5.73;70.87
80333;BME280;69652;51.864;-2.246;2024-03-23T06:51:55;101344.16;;;5.74;70.84
80333;BME280;69652;51.864;-2.246;2024-03-23T06:54:21;101338.00;;;5.78;70.85
80333;BME280;69652;51.864;-2.246;2024-03-23T06:56:46;101335.28;;;5.78;70.66
80333;BME280;69652;51.864;-2.246;2024-03-23T06:59:12;101324.25;;;5.80;71.14
80333;BME280;69652;51.864;-2.246;2024-03-23T07:01:37;101317.81;;;5.81;70.99
80333;BME280;69652;51.864;-2.246;2024-03-23T07:04:03;101325.38;;;5.84;71.45
80333;BME280;69652;51.864;-2.246;2024-03-23T07:06:32;101319.50;;;5.87;71.36
80333;BME280;69652;51.864;-2.246;2024-03-23T07:08:58;101314.69;;;5.89;70.85
80333;BME280;69652;51.864;-2.246;2024-03-23T07:11:23;101310.16;;;5.95;70.98
80333;BME280;69652;51.864;-2.246;2024-03-23T07:13:50;101304.00;;;5.99;70.69
80333;BME280;69652;51.864;-2.246;2024-03-23T07:16:16;101313.72;;;6.05;69.89
80333;BME280;69652;51.864;-2.246;2024-03-23T07:18:42;101324.03;;;6.13;69.55
80333;BME280;69652;51.864;-2.246;2024-03-23T07:21:07;101320.00;;;6.16;70.33
80333;BME280;69652;51.864;-2.246;2024-03-23T07:23:33;101318.47;;;6.25;70.11
80333;BME280;69652;51.864;-2.246;2024-03-23T07:26:03;101313.34;;;6.29;69.46
80333;BME280;69652;51.864;-2.246;2024-03-23T07:28:30;101321.22;;;6.35;70.05
80333;BME280;69652;51.864;-2.246;2024-03-23T07:31:13;101317.97;;;6.38;69.47
80333;BME280;69652;51.864;-2.246;2024-03-23T07:33:48;101307.50;;;6.42;69.95
80333;BME280;69652;51.864;-2.246;2024-03-23T07:36:14;101305.59;;;6.42;68.72
80333;BME280;69652;51.864;-2.246;2024-03-23T07:38:43;101306.69;;;6.41;69.33
80333;BME280;69652;51.864;-2.246;2024-03-23T07:41:15;101298.91;;;6.50;68.92
80333;BME280;69652;51.864;-2.246;2024-03-23T07:43:44;101295.97;;;6.57;69.83
80333;BME280;69652;51.864;-2.246;2024-03-23T07:46:11;101305.97;;;6.61;68.39
80333;BME280;69652;51.864;-2.246;2024-03-23T07:48:37;101308.97;;;6.65;68.42
80333;BME280;69652;51.864;-2.246;2024-03-23T07:53:32;101305.56;;;6.89;68.72
80333;BME280;69652;51.864;-2.246;2024-03-23T07:55:59;101301.00;;;6.95;68.22
80333;BME280;69652;51.864;-2.246;2024-03-23T07:58:26;101301.53;;;6.97;69.04
80333;BME280;69652;51.864;-2.246;2024-03-23T08:00:55;101293.44;;;6.92;67.89
80333;BME280;69652;51.864;-2.246;2024-03-23T08:03:21;101298.03;;;6.92;69.15
80333;BME280;69652;51.864;-2.246;2024-03-23T08:05:47;101291.84;;;6.96;68.88
80333;BME280;69652;51.864;-2.246;2024-03-23T08:08:13;101278.63;;;7.05;68.36
80333;BME280;69652;51.864;-2.246;2024-03-23T08:10:56;101271.63;;;7.14;67.49
80333;BME280;69652;51.864;-2.246;2024-03-23T08:13:22;101260.56;;;7.20;67.69
80333;BME280;69652;51.864;-2.246;2024-03-23T08:15:47;101270.28;;;7.32;67.03
80333;BME280;69652;51.864;-2.246;2024-03-23T08:18:13;101273.31;;;7.40;66.72
80333;BME280;69652;51.864;-2.246;2024-03-23T08:20:41;101267.34;;;7.48;67.27
80333;BME280;69652;51.864;-2.246;2024-03-23T08:23:07;101268.69;;;7.56;65.94
80333;BME280;69652;51.864;-2.246;2024-03-23T08:25:33;101266.81;;;7.51;66.04
80333;BME280;69652;51.864;-2.246;2024-03-23T08:27:59;101253.59;;;7.65;65.57
80333;BME280;69652;51.864;-2.246;2024-03-23T08:30:24;101258.16;;;7.70;65.29
80333;BME280;69652;51.864;-2.246;2024-03-23T08:32:50;101256.81;;;7.72;65.00
80333;BME280;69652;51.864;-2.246;2024-03-23T08:35:15;101255.75;;;7.78;63.70
80333;BME280;69652;51.864;-2.246;2024-03-23T08:37:41;101260.63;;;7.76;63.91
80333;BME280;69652;51.864;-2.246;2024-03-23T08:40:07;101251.94;;;7.84;63.52
80333;BME280;69652;51.864;-2.246;2024-03-23T08:42:34;101256.28;;;7.85;62.58
80333;BME280;69652;51.864;-2.246;2024-03-23T08:44:59;101254.38;;;8.01;62.81
80333;BME280;69652;51.864;-2.246;2024-03-23T08:47:25;101245.41;;;8.16;61.42
80333;BME280;69652;51.864;-2.246;2024-03-23T08:49:51;101234.84;;;8.14;61.54
80333;BME280;69652;51.864;-2.246;2024-03-23T08:52:16;101232.69;;;8.37;60.45
80333;BME280;69652;51.864;-2.246;2024-03-23T08:54:42;101230.78;;;8.37;61.23
80333;BME280;69652;51.864;-2.246;2024-03-23T08:57:08;101229.66;;;8.43;60.79
80333;BME280;69652;51.864;-2.246;2024-03-23T08:59:33;101229.59;;;8.63;59.27
80333;BME280;69652;51.864;-2.246;2024-03-23T09:01:59;101229.03;;;8.61;59.07
80333;BME280;69652;51.864;-2.246;2024-03-23T09:04:24;101215.78;;;8.65;59.72
80333;BME280;69652;51.864;-2.246;2024-03-23T09:06:50;101214.91;;;8.75;58.16
80333;BME280;69652;51.864;-2.246;2024-03-23T09:09:16;101214.91;;;8.75;58.74
80333;BME280;69652;51.864;-2.246;2024-03-23T09:11:42;101210.84;;;8.77;57.96
80333;BME280;69652;51.864;-2.246;2024-03-23T09:14:07;101216.81;;;8.74;57.76
80333;BME280;69652;51.864;-2.246;2024-03-23T09:16:34;101210.56;;;8.84;57.25
80333;BME280;69652;51.864;-2.246;2024-03-23T09:19:00;101212.75;;;8.77;56.36
80333;BME280;69652;51.864;-2.246;2024-03-23T09:21:25;101205.16;;;8.79;56.61
80333;BME280;69652;51.864;-2.246;2024-03-23T09:23:51;101206.91;;;9.03;56.49
80333;BME280;69652;51.864;-2.246;2024-03-23T09:26:16;101202.50;;;9.13;56.15
80333;BME280;69652;51.864;-2.246;2024-03-23T09:28:42;101205.28;;;9.02;56.32
80333;BME280;69652;51.864;-2.246;2024-03-23T09:31:08;101189.75;;;9.18;55.92
80333;BME280;69652;51.864;-2.246;2024-03-23T09:33:35;101196.44;;;8.87;56.06
80333;BME280;69652;51.864;-2.246;2024-03-23T09:36:04;101192.03;;;9.01;55.36
80333;BME280;69652;51.864;-2.246;2024-03-23T09:38:30;101187.03;;;9.18;55.86
80333;BME280;69652;51.864;-2.246;2024-03-23T09:40:57;101184.59;;;9.17;55.76
80333;BME280;69652;51.864;-2.246;2024-03-23T09:43:23;101189.31;;;9.01;55.90
80333;BME280;69652;51.864;-2.246;2024-03-23T09:45:49;101189.97;;;9.22;55.87
80333;BME280;69652;51.864;-2.246;2024-03-23T09:48:15;101184.34;;;9.13;55.70
80333;BME280;69652;51.864;-2.246;2024-03-23T09:50:42;101179.34;;;9.30;55.79
80333;BME280;69652;51.864;-2.246;2024-03-23T09:53:09;101184.84;;;9.20;55.36
80333;BME280;69652;51.864;-2.246;2024-03-23T09:55:36;101180.88;;;9.08;56.49
80333;BME280;69652;51.864;-2.246;2024-03-23T09:58:03;101175.94;;;9.20;54.30
80333;BME280;69652;51.864;-2.246;2024-03-23T10:00:30;101182.25;;;9.39;53.37
80333;BME280;69652;51.864;-2.246;2024-03-23T10:02:56;101169.59;;;9.87;53.27
80333;BME280;69652;51.864;-2.246;2024-03-23T10:05:26;101167.88;;;9.96;52.06
80333;BME280;69652;51.864;-2.246;2024-03-23T10:07:53;101148.34;;;10.23;50.47
80333;BME280;69652;51.864;-2.246;2024-03-23T10:10:18;101162.34;;;10.06;51.08
80333;BME280;69652;51.864;-2.246;2024-03-23T10:12:45;101156.84;;;10.11;51.37
80333;BME280;69652;51.864;-2.246;2024-03-23T10:15:25;101159.31;;;9.84;52.64
80333;BME280;69652;51.864;-2.246;2024-03-23T10:17:51;101158.50;;;9.60;55.03
80333;BME280;69652;51.864;-2.246;2024-03-23T10:20:21;101169.72;;;9.48;57.14
80333;BME280;69652;51.864;-2.246;2024-03-23T10:22:48;101170.69;;;9.57;56.26
80333;BME280;69652;51.864;-2.246;2024-03-23T10:25:14;101167.72;;;9.30;56.14
80333;BME280;69652;51.864;-2.246;2024-03-23T10:27:40;101172.75;;;9.41;56.50
80333;BME280;69652;51.864;-2.246;2024-03-23T10:30:10;101160.63;;;9.63;54.41
80333;BME280;69652;51.864;-2.246;2024-03-23T10:32:37;101153.13;;;9.55;55.13
80333;BME280;69652;51.864;-2.246;2024-03-23T10:35:20;101166.41;;;9.80;53.79
80333;BME280;69652;51.864;-2.246;2024-03-23T10:37:48;101166.31;;;9.66;55.48
80333;BME280;69652;51.864;-2.246;2024-03-23T10:40:17;101162.19;;;9.40;56.54
80333;BME280;69652;51.864;-2.246;2024-03-23T10:42:44;101163.03;;;9.35;56.66
80333;BME280;69652;51.864;-2.246;2024-03-23T10:45:10;101156.06;;;9.29;57.04
80333;BME280;69652;51.864;-2.246;2024-03-23T10:47:37;101170.63;;;9.33;55.49
80333;BME280;69652;51.864;-2.246;2024-03-23T10:50:05;101158.44;;;9.36;56.15
80333;BME280;69652;51.864;-2.246;2024-03-23T10:52:33;101152.50;;;9.34;56.65
80333;BME280;69652;51.864;-2.246;2024-03-23T10:55:00;101159.41;;;9.16;57.75
80333;BME280;69652;51.864;-2.246;2024-03-23T10:57:34;101175.59;;;8.87;61.14
80333;BME280;69652;51.864;-2.246;2024-03-23T11:00:03;101170.56;;;8.71;61.40
80333;BME280;69652;51.864;-2.246;2024-03-23T11:02:29;101182.53;;;8.59;61.52
80333;BME280;69652;51.864;-2.246;2024-03-23T11:04:55;101183.16;;;8.41;63.48
80333;BME280;69652;51.864;-2.246;2024-03-23T11:09:52;101189.28;;;7.77;66.27
80333;BME280;69652;51.864;-2.246;2024-03-23T11:15:05;101189.84;;;7.03;73.62
80333;BME280;69652;51.864;-2.246;2024-03-23T11:17:31;101184.69;;;6.97;72.35
80333;BME280;69652;51.864;-2.246;2024-03-23T11:22:46;101148.22;;;6.69;75.92
80333;BME280;69652;51.864;-2.246;2024-03-23T11:25:13;101129.34;;;6.79;75.85
80333;BME280;69652;51.864;-2.246;2024-03-23T11:27:38;101127.50;;;6.95;77.20
80333;BME280;69652;51.864;-2.246;2024-03-23T11:30:17;101144.47;;;6.90;75.76
80333;BME280;69652;51.864;-2.246;2024-03-23T11:32:44;101143.63;;;6.84;75.97
80333;BME280;69652;51.864;-2.246;2024-03-23T11:35:10;101139.63;;;6.82;77.47
80333;BME280;69652;51.864;-2.246;2024-03-23T11:37:36;101144.75;;;6.94;76.80
80333;BME280;69652;51.864;-2.246;2024-03-23T11:40:18;101132.34;;;7.03;78.56
80333;BME280;69652;51.864;-2.246;2024-03-23T11:42:44;101136.91;;;6.87;78.48
80333;BME280;69652;51.864;-2.246;2024-03-23T11:45:10;101145.00;;;7.33;77.49
80333;BME280;69652;51.864;-2.246;2024-03-23T11:47:35;101131.44;;;7.73;75.79
80333;BME280;69652;51.864;-2.246;2024-03-23T11:50:01;101127.53;;;9.37;71.75
80333;BME280;69652;51.864;-2.246;2024-03-23T11:52:26;101152.03;;;8.49;71.00
80333;BME280;69652;51.864;-2.246;2024-03-23T11:55:03;101152.97;;;8.04;73.10
80333;BME280;69652;51.864;-2.246;2024-03-23T11:57:29;101142.84;;;7.45;75.44
80333;BME280;69652;51.864;-2.246;2024-03-23T11:59:55;101145.56;;;7.30;75.56
80333;BME280;69652;51.864;-2.246;2024-03-23T12:02:20;101140.41;;;7.33;74.73
80333;BME280;69652;51.864;-2.246;2024-03-23T12:04:46;101133.69;;;7.31;75.05
80333;BME280;69652;51.864;-2.246;2024-03-23T12:07:16;101132.81;;;7.55;74.49
80333;BME280;69652;51.864;-2.246;2024-03-23T12:09:46;101132.81;;;7.76;74.66
80333;BME280;69652;51.864;-2.246;2024-03-23T12:12:16;101133.78;;;9.66;68.42
80333;BME280;69652;51.864;-2.246;2024-03-23T12:14:43;101109.13;;;11.97;60.71
80333;BME280;69652;51.864;-2.246;2024-03-23T12:17:13;101108.47;;;12.77;57.97
80333;BME280;69652;51.864;-2.246;2024-03-23T12:19:39;101083.13;;;14.57;53.16
80333;BME280;69652;51.864;-2.246;2024-03-23T12:22:07;101056.41;;;16.82;50.45
80333;BME280;69652;51.864;-2.246;2024-03-23T12:24:33;101075.81;;;15.76;47.81
80333;BME280;69652;51.864;-2.246;2024-03-23T12:27:05;101070.19;;;15.26;50.29
80333;BME280;69652;51.864;-2.246;2024-03-23T12:29:31;101069.81;;;15.45;49.11
80333;BME280;69652;51.864;-2.246;2024-03-23T12:32:00;101049.69;;;16.08;48.34
80333;BME280;69652;51.864;-2.246;2024-03-23T12:34:27;101053.81;;;16.65;45.44
80333;BME280;69652;51.864;-2.246;2024-03-23T12:36:53;101053.91;;;17.22;42.39
80333;BME280;69652;51.864;-2.246;2024-03-23T12:39:18;101041.84;;;17.02;43.51
80333;BME280;69652;51.864;-2.246;2024-03-23T12:41:46;101055.09;;;15.96;43.63
80333;BME280;69652;51.864;-2.246;2024-03-23T12:44:11;101055.00;;;14.82;48.31
80333;BME280;69652;51.864;-2.246;2024-03-23T12:46:37;101061.97;;;12.95;52.41
80333;BME280;69652;51.864;-2.246;2024-03-23T12:49:04;101044.31;;;13.15;50.49
80333;BME280;69652;51.864;-2.246;2024-03-23T12:51:31;101032.34;;;15.37;44.98
80333;BME280;69652;51.864;-2.246;2024-03-23T12:53:56;101024.06;;;16.13;42.49
80333;BME280;69652;51.864;-2.246;2024-03-23T12:56:22;101029.63;;;16.25;42.05
80333;BME280;69652;51.864;-2.246;2024-03-23T12:58:47;101022.59;;;16.36;41.60
80333;BME280;69652;51.864;-2.246;2024-03-23T13:01:20;101018.91;;;16.74;40.71
80333;BME280;69652;51.864;-2.246;2024-03-23T13:03:47;101011.13;;;18.58;38.65
80333;BME280;69652;51.864;-2.246;2024-03-23T13:06:13;101006.03;;;19.63;35.49
80333;BME280;69652;51.864;-2.246;2024-03-23T13:08:39;100993.00;;;18.69;38.42
80333;BME280;69652;51.864;-2.246;2024-03-23T13:11:06;101016.81;;;18.93;38.49
80333;BME280;69652;51.864;-2.246;2024-03-23T13:13:37;101010.13;;;18.11;36.66
80333;BME280;69652;51.864;-2.246;2024-03-23T13:16:03;101022.47;;;18.85;35.76
80333;BME280;69652;51.864;-2.246;2024-03-23T13:18:30;101009.00;;;20.44;32.93
80333;BME280;69652;51.864;-2.246;2024-03-23T13:20:55;101020.56;;;17.56;37.15
80333;BME280;69652;51.864;-2.246;2024-03-23T13:23:21;101033.06;;;15.93;39.54
80333;BME280;69652;51.864;-2.246;2024-03-23T13:25:54;101038.53;;;15.93;39.98
80333;BME280;69652;51.864;-2.246;2024-03-23T13:28:21;101027.75;;;19.84;33.70
80333;BME280;69652;51.864;-2.246;2024-03-23T13:30:53;101038.28;;;20.13;34.56
80333;BME280;69652;51.864;-2.246;2024-03-23T13:33:19;101038.41;;;20.20;32.23
80333;BME280;69652;51.864;-2.246;2024-03-23T13:35:52;101016.00;;;20.99;30.98
80333;BME280;69652;51.864;-2.246;2024-03-23T13:38:19;101009.09;;;23.48;27.94
80333;BME280;69652;51.864;-2.246;2024-03-23T13:40:58;101014.47;;;22.56;28.81
80333;BME280;69652;51.864;-2.246;2024-03-23T13:43:26;101047.81;;;17.16;37.09
80333;BME280;69652;51.864;-2.246;2024-03-23T13:45:56;101047.91;;;14.81;43.14
80333;BME280;69652;51.864;-2.246;2024-03-23T13:48:23;101057.13;;;14.51;44.65